sensor_id;sensor_type;location;lat;lon;timestamp;pressure;altitude;pressure_sealevel;temperature;humidity
50364;BME280;36272;59.400;17.982;2022-07-17T00:04:53;101309.38;;;16.69;55.67
50364;BME280;36272;59.400;17.982;2022-07-17T00:09:54;101310.22;;;16.69;55.85
50364;BME280;36272;59.400;17.982;2022-07-17T00:14:56;101314.22;;;16.67;55.94
50364;BME280;36272;59.400;17.982;2022-07-17T00:19:57;101324.44;;;16.64;55.88
50364;BME280;36272;59.400;17.982;2022-07-17T00:24:59;101319.31;;;16.63;56.08
50364;BME280;36272;59.400;17.982;2022-07-17T00:30:01;101314.63;;;16.58;56.27
50364;BME280;36272;59.400;17.982;2022-07-17T00:35:03;101307.94;;;16.61;56.04
50364;BME280;36272;59.400;17.982;2022-07-17T00:40:05;101308.72;;;16.61;56.08
50364;BME280;36272;59.400;17.982;2022-07-17T00:45:08;101309.56;;;16.62;56.12
50364;BME280;36272;59.400;17.982;2022-07-17T00:50:10;101316.53;;;16.58;55.85
50364;BME280;36272;59.400;17.982;2022-07-17T00:55:13;101304.09;;;16.57;55.94
50364;BME280;36272;59.400;17.982;2022-07-17T01:00:16;101304.91;;;16.57;55.68
50364;BME280;36272;59.400;17.982;2022-07-17T01:05:19;101315.97;;;16.56;55.84
50364;BME280;36272;59.400;17.982;2022-07-17T01:10:21;101327.56;;;16.56;55.90
50364;BME280;36272;59.400;17.982;2022-07-17T01:15:23;101328.31;;;16.52;55.67
50364;BME280;36272;59.400;17.982;2022-07-17T01:20:25;101330.94;;;16.46;55.85
50364;BME280;36272;59.400;17.982;2022-07-17T01:25:27;101332.00;;;16.45;55.95
50364;BME280;36272;59.400;17.982;2022-07-17T01:30:28;101340.09;;;16.45;55.93
50364;BME280;36272;59.400;17.982;2022-07-17T01:35:30;101338.16;;;16.41;56.30
50364;BME280;36272;59.400;17.982;2022-07-17T01:40:31;101343.69;;;16.34;57.06
50364;BME280;36272;59.400;17.982;2022-07-17T01:45:33;101345.75;;;16.27;56.92
50364;BME280;36272;59.400;17.982;2022-07-17T01:50:36;101341.09;;;16.22;56.64
50364;BME280;36272;59.400;17.982;2022-07-17T01:55:37;101344.19;;;16.14;56.83
50364;BME280;36272;59.400;17.982;2022-07-17T02:00:42;101340.34;;;16.10;57.00
50364;BME280;36272;59.400;17.982;2022-07-17T02:05:44;101340.84;;;16.07;57.31
50364;BME280;36272;59.400;17.982;2022-07-17T02:10:45;101350.47;;;16.02;57.21
50364;BME280;36272;59.400;17.982;2022-07-17T02:15:47;101350.97;;;15.99;57.24
50364;BME280;36272;59.400;17.982;2022-07-17T02:20:49;101349.66;;;16.02;57.22
50364;BME280;36272;59.400;17.982;2022-07-17T02:25:50;101352.84;;;15.99;57.44
50364;BME280;36272;59.400;17.982;2022-07-17T02:30:52;101349.66;;;16.02;57.57
50364;BME280;36272;59.400;17.982;2022-07-17T02:35:54;101359.63;;;16.01;57.51
50364;BME280;36272;59.400;17.982;2022-07-17T02:40:55;101352.69;;;16.05;57.41
50364;BME280;36272;59.400;17.982;2022-07-17T02:45:57;101341.81;;;16.00;57.59
50364;BME280;36272;59.400;17.982;2022-07-17T02:50:59;101351.78;;;16.00;57.73
50364;BME280;36272;59.400;17.982;2022-07-17T02:56:01;101350.63;;;15.96;57.65
50364;BME280;36272;59.400;17.982;2022-07-17T03:01:03;101350.63;;;15.96;57.93
50364;BME280;36272;59.400;17.982;2022-07-17T03:06:14;101349.81;;;15.95;58.09
50364;BME280;36272;59.400;17.982;2022-07-17T03:11:16;101367.28;;;15.93;58.27
50364;BME280;36272;59.400;17.982;2022-07-17T03:16:18;101373.41;;;15.88;58.40
50364;BME280;36272;59.400;17.982;2022-07-17T03:21:19;101371.03;;;15.91;58.58
50364;BME280;36272;59.400;17.982;2022-07-17T03:26:21;101370.97;;;15.86;58.64
50364;BME280;36272;59.400;17.982;2022-07-17T03:31:23;101382.78;;;15.85;58.83
50364;BME280;36272;59.400;17.982;2022-07-17T03:36:24;101393.81;;;15.84;58.85
50364;BME280;36272;59.400;17.982;2022-07-17T03:41:27;101380.72;;;15.87;58.76
50364;BME280;36272;59.400;17.982;2022-07-17T03:46:28;101384.78;;;15.90;58.79
50364;BME280;36272;59.400;17.982;2022-07-17T03:51:33;101388.53;;;15.89;58.91
50364;BME280;36272;59.400;17.982;2022-07-17T03:56:34;101394.78;;;15.89;59.37
50364;BME280;36272;59.400;17.982;2022-07-17T04:01:36;101389.91;;;15.91;58.80
50364;BME280;36272;59.400;17.982;2022-07-17T04:06:37;101393.44;;;15.92;59.12
50364;BME280;36272;59.400;17.982;2022-07-17T04:11:39;101404.34;;;15.97;59.10
50364;BME280;36272;59.400;17.982;2022-07-17T04:16:41;101406.06;;;16.03;59.49
50364;BME280;36272;59.400;17.982;2022-07-17T04:21:42;101399.13;;;16.08;59.61
50364;BME280;36272;59.400;17.982;2022-07-17T04:26:44;101408.88;;;16.09;59.48
50364;BME280;36272;59.400;17.982;2022-07-17T04:31:46;101408.88;;;16.09;59.45
50364;BME280;36272;59.400;17.982;2022-07-17T04:36:47;101399.19;;;16.13;59.63
50364;BME280;36272;59.400;17.982;2022-07-17T04:41:50;101396.28;;;16.14;59.25
50364;BME280;36272;59.400;17.982;2022-07-17T04:46:51;101410.09;;;16.18;59.14
50364;BME280;36272;59.400;17.982;2022-07-17T04:51:53;101414.91;;;16.16;59.11
50364;BME280;36272;59.400;17.982;2022-07-17T04:56:54;101408.72;;;16.15;59.17
50364;BME280;36272;59.400;17.982;2022-07-17T05:01:56;101410.66;;;16.20;58.96
50364;BME280;36272;59.400;17.982;2022-07-17T05:06:58;101415.09;;;16.26;59.12
50364;BME280;36272;59.400;17.982;2022-07-17T05:11:59;101410.63;;;16.32;58.52
50364;BME280;36272;59.400;17.982;2022-07-17T05:17:01;101423.59;;;16.35;58.30
50364;BME280;36272;59.400;17.982;2022-07-17T05:22:06;101416.81;;;16.32;58.06
50364;BME280;36272;59.400;17.982;2022-07-17T05:27:07;101428.69;;;16.31;57.62
50364;BME280;36272;59.400;17.982;2022-07-17T05:32:16;101414.97;;;16.33;57.38
50364;BME280;36272;59.400;17.982;2022-07-17T05:37:18;101427.47;;;16.39;57.44
50364;BME280;36272;59.400;17.982;2022-07-17T05:42:20;101425.34;;;16.41;57.47
50364;BME280;36272;59.400;17.982;2022-07-17T05:47:21;101426.75;;;16.44;57.62
50364;BME280;36272;59.400;17.982;2022-07-17T05:52:23;101421.66;;;16.47;57.03
50364;BME280;36272;59.400;17.982;2022-07-17T05:57:24;101423.06;;;16.50;57.37
50364;BME280;36272;59.400;17.982;2022-07-17T06:02:26;101412.09;;;16.57;57.41
50364;BME280;36272;59.400;17.982;2022-07-17T06:07:28;101423.56;;;16.64;57.20
50364;BME280;36272;59.400;17.982;2022-07-17T06:12:29;101424.44;;;16.70;57.56
50364;BME280;36272;59.400;17.982;2022-07-17T06:17:34;101422.41;;;16.77;57.55
50364;BME280;36272;59.400;17.982;2022-07-17T06:22:35;101434.03;;;16.77;57.53
50364;BME280;36272;59.400;17.982;2022-07-17T06:27:41;101418.91;;;16.76;57.55
50364;BME280;36272;59.400;17.982;2022-07-17T06:32:43;101436.22;;;16.80;57.65
50364;BME280;36272;59.400;17.982;2022-07-17T06:37:45;101438.03;;;16.92;57.45
50364;BME280;36272;59.400;17.982;2022-07-17T06:42:46;101435.72;;;17.01;57.61
50364;BME280;36272;59.400;17.982;2022-07-17T06:47:48;101428.84;;;17.10;57.00
50364;BME280;36272;59.400;17.982;2022-07-17T06:52:50;101435.88;;;17.11;57.30
50364;BME280;36272;59.400;17.982;2022-07-17T06:57:51;101433.84;;;17.18;56.88
50364;BME280;36272;59.400;17.982;2022-07-17T07:02:53;101435.53;;;17.24;56.83
50364;BME280;36272;59.400;17.982;2022-07-17T07:07:55;101438.81;;;17.27;56.90
50364;BME280;36272;59.400;17.982;2022-07-17T07:12:56;101448.72;;;17.38;56.90
50364;BME280;36272;59.400;17.982;2022-07-17T07:17:58;101450.94;;;17.46;56.90
50364;BME280;36272;59.400;17.982;2022-07-17T07:23:00;101443.25;;;17.55;56.04
50364;BME280;36272;59.400;17.982;2022-07-17T07:28:03;101434.94;;;17.62;55.65
50364;BME280;36272;59.400;17.982;2022-07-17T07:33:04;101443.09;;;17.67;55.23
50364;BME280;36272;59.400;17.982;2022-07-17T07:38:06;101460.78;;;17.75;54.70
50364;BME280;36272;59.400;17.982;2022-07-17T07:43:08;101449.22;;;17.79;54.52
50364;BME280;36272;59.400;17.982;2022-07-17T07:48:10;101447.44;;;17.90;54.13
50364;BME280;36272;59.400;17.982;2022-07-17T07:53:12;101446.81;;;18.05;53.36
50364;BME280;36272;59.400;17.982;2022-07-17T07:58:13;101444.66;;;18.07;52.84
50364;BME280;36272;59.400;17.982;2022-07-17T08:03:15;101443.38;;;18.15;52.52
50364;BME280;36272;59.400;17.982;2022-07-17T08:08:17;101444.81;;;18.23;52.29
50364;BME280;36272;59.400;17.982;2022-07-17T08:13:19;101441.66;;;18.31;52.00
50364;BME280;36272;59.400;17.982;2022-07-17T08:18:20;101450.91;;;18.40;52.01
50364;BME280;36272;59.400;17.982;2022-07-17T08:23:22;101448.88;;;18.53;51.52
50364;BME280;36272;59.400;17.982;2022-07-17T08:28:23;101447.31;;;18.62;51.06
50364;BME280;36272;59.400;17.982;2022-07-17T08:33:25;101449.00;;;18.68;50.77
50364;BME280;36272;59.400;17.982;2022-07-17T08:38:27;101442.00;;;18.78;50.92
50364;BME280;36272;59.400;17.982;2022-07-17T08:43:29;101444.78;;;18.88;50.83
50364;BME280;36272;59.400;17.982;2022-07-17T08:48:31;101436.47;;;18.95;50.81
50364;BME280;36272;59.400;17.982;2022-07-17T08:53:33;101453.53;;;18.95;50.73
50364;BME280;36272;59.400;17.982;2022-07-17T08:58:35;101445.75;;;19.04;49.95
50364;BME280;36272;59.400;17.982;2022-07-17T09:03:40;101433.84;;;19.10;50.48
50364;BME280;36272;59.400;17.982;2022-07-17T09:08:45;101455.56;;;19.15;49.93
50364;BME280;36272;59.400;17.982;2022-07-17T09:13:47;101455.31;;;19.17;50.02
50364;BME280;36272;59.400;17.982;2022-07-17T09:18:51;101433.97;;;19.31;49.89
50364;BME280;36272;59.400;17.982;2022-07-17T09:29:03;101447.03;;;19.39;49.29
50364;BME280;36272;59.400;17.982;2022-07-17T09:34:05;101446.72;;;19.36;49.47
50364;BME280;36272;59.400;17.982;2022-07-17T09:39:17;101467.88;;;19.34;49.50
50364;BME280;36272;59.400;17.982;2022-07-17T09:44:19;101459.72;;;19.34;49.54
50364;BME280;36272;59.400;17.982;2022-07-17T09:49:23;101450.00;;;19.38;49.46
50364;BME280;36272;59.400;17.982;2022-07-17T09:54:27;101454.88;;;19.36;49.42
50364;BME280;36272;59.400;17.982;2022-07-17T09:59:35;101432.09;;;19.37;49.43
50364;BME280;36272;59.400;17.982;2022-07-17T10:04:36;101446.78;;;19.46;49.82
50364;BME280;36272;59.400;17.982;2022-07-17T10:09:39;101441.66;;;19.55;49.41
50364;BME280;36272;59.400;17.982;2022-07-17T10:14:41;101449.56;;;19.61;49.63
50364;BME280;36272;59.400;17.982;2022-07-17T10:19:54;101441.44;;;19.72;49.91
50364;BME280;36272;59.400;17.982;2022-07-17T10:25:04;101442.63;;;19.91;49.43
50364;BME280;36272;59.400;17.982;2022-07-17T10:30:08;101438.31;;;20.01;49.03
50364;BME280;36272;59.400;17.982;2022-07-17T10:35:11;101452.44;;;20.13;48.56
50364;BME280;36272;59.400;17.982;2022-07-17T10:40:26;101427.47;;;20.21;47.94
50364;BME280;36272;59.400;17.982;2022-07-17T10:45:41;101431.56;;;20.45;48.00
50364;BME280;36272;59.400;17.982;2022-07-17T10:50:55;101441.06;;;20.58;48.03
50364;BME280;36272;59.400;17.982;2022-07-17T10:56:05;101431.84;;;20.85;48.17
50364;BME280;36272;59.400;17.982;2022-07-17T11:01:14;101433.94;;;21.08;47.47
50364;BME280;36272;59.400;17.982;2022-07-17T11:06:37;101420.81;;;21.36;47.73
50364;BME280;36272;59.400;17.982;2022-07-17T11:11:44;101425.25;;;21.82;46.91
50364;BME280;36272;59.400;17.982;2022-07-17T11:16:55;101429.63;;;22.23;46.82
50364;BME280;36272;59.400;17.982;2022-07-17T11:21:59;101429.97;;;22.81;45.58
50364;BME280;36272;59.400;17.982;2022-07-17T11:27:01;101434.94;;;23.71;44.69
50364;BME280;36272;59.400;17.982;2022-07-17T11:32:03;101426.50;;;24.44;43.44
50364;BME280;36272;59.400;17.982;2022-07-17T11:37:07;101429.94;;;25.38;41.94
50364;BME280;36272;59.400;17.982;2022-07-17T11:42:20;101416.88;;;26.23;39.86
50364;BME280;36272;59.400;17.982;2022-07-17T11:47:25;101411.41;;;26.86;40.09
50364;BME280;36272;59.400;17.982;2022-07-17T11:52:42;101413.53;;;26.98;39.06
50364;BME280;36272;59.400;17.982;2022-07-17T11:57:49;101419.66;;;26.95;39.12
50364;BME280;36272;59.400;17.982;2022-07-17T12:03:05;101420.19;;;26.65;39.77
50364;BME280;36272;59.400;17.982;2022-07-17T12:08:08;101441.44;;;27.31;39.40
50364;BME280;36272;59.400;17.982;2022-07-17T12:13:10;101429.25;;;27.99;38.73
50364;BME280;36272;59.400;17.982;2022-07-17T12:18:29;101414.84;;;28.29;37.85
50364;BME280;36272;59.400;17.982;2022-07-17T12:23:32;101440.03;;;28.48;37.68
50364;BME280;36272;59.400;17.982;2022-07-17T12:28:35;101424.22;;;28.28;37.01
50364;BME280;36272;59.400;17.982;2022-07-17T12:33:39;101404.00;;;28.24;37.39
50364;BME280;36272;59.400;17.982;2022-07-17T12:38:44;101421.66;;;28.23;37.31
50364;BME280;36272;59.400;17.982;2022-07-17T12:43:45;101421.84;;;28.65;37.27
50364;BME280;36272;59.400;17.982;2022-07-17T12:48:47;101429.09;;;28.87;36.30
50364;BME280;36272;59.400;17.982;2022-07-17T12:53:49;101418.03;;;29.26;36.27
50364;BME280;36272;59.400;17.982;2022-07-17T12:58:50;101422.66;;;29.13;35.93
50364;BME280;36272;59.400;17.982;2022-07-17T13:03:52;101414.88;;;29.36;36.08
50364;BME280;36272;59.400;17.982;2022-07-17T13:08:54;101409.22;;;29.63;35.67
50364;BME280;36272;59.400;17.982;2022-07-17T13:13:55;101408.72;;;30.37;35.51
50364;BME280;36272;59.400;17.982;2022-07-17T13:18:57;101411.91;;;30.97;34.66
50364;BME280;36272;59.400;17.982;2022-07-17T13:23:58;101400.06;;;30.97;34.20
50364;BME280;36272;59.400;17.982;2022-07-17T13:29:00;101402.94;;;31.25;33.96
50364;BME280;36272;59.400;17.982;2022-07-17T13:34:02;101392.53;;;31.47;34.07
50364;BME280;36272;59.400;17.982;2022-07-17T13:39:04;101385.88;;;31.77;33.59
50364;BME280;36272;59.400;17.982;2022-07-17T13:44:07;101386.09;;;31.71;33.38
50364;BME280;36272;59.400;17.982;2022-07-17T13:49:08;101397.28;;;31.22;33.68
50364;BME280;36272;59.400;17.982;2022-07-17T13:54:10;101389.44;;;31.49;33.05
50364;BME280;36272;59.400;17.982;2022-07-17T13:59:12;101397.31;;;31.09;33.17
50364;BME280;36272;59.400;17.982;2022-07-17T14:04:14;101390.84;;;31.18;33.29
50364;BME280;36272;59.400;17.982;2022-07-17T14:09:15;101392.72;;;31.54;32.63
50364;BME280;36272;59.400;17.982;2022-07-17T14:14:17;101389.63;;;30.90;32.77
50364;BME280;36272;59.400;17.982;2022-07-17T14:19:19;101395.59;;;30.21;33.21
50364;BME280;36272;59.400;17.982;2022-07-17T14:24:20;101385.34;;;29.88;33.47
50364;BME280;36272;59.400;17.982;2022-07-17T14:29:22;101391.22;;;30.20;33.59
50364;BME280;36272;59.400;17.982;2022-07-17T14:34:24;101379.31;;;30.53;33.09
50364;BME280;36272;59.400;17.982;2022-07-17T14:39:25;101378.03;;;31.38;32.61
50364;BME280;36272;59.400;17.982;2022-07-17T14:44:27;101365.25;;;31.45;32.14
50364;BME280;36272;59.400;17.982;2022-07-17T14:49:41;101360.66;;;31.37;32.13
50364;BME280;36272;59.400;17.982;2022-07-17T14:54:42;101367.16;;;31.17;32.03
50364;BME280;36272;59.400;17.982;2022-07-17T14:59:44;101367.34;;;30.24;32.79
50364;BME280;36272;59.400;17.982;2022-07-17T15:04:45;101357.38;;;29.35;33.71
50364;BME280;36272;59.400;17.982;2022-07-17T15:09:47;101359.97;;;28.89;34.20
50364;BME280;36272;59.400;17.982;2022-07-17T15:14:49;101361.25;;;28.44;34.98
50364;BME280;36272;59.400;17.982;2022-07-17T15:19:50;101365.03;;;28.04;35.41
50364;BME280;36272;59.400;17.982;2022-07-17T15:24:52;101360.56;;;27.90;35.67
50364;BME280;36272;59.400;17.982;2022-07-17T15:29:54;101360.38;;;27.87;35.58
50364;BME280;36272;59.400;17.982;2022-07-17T15:34:56;101362.81;;;27.71;36.06
50364;BME280;36272;59.400;17.982;2022-07-17T15:39:58;101359.25;;;27.44;36.34
50364;BME280;36272;59.400;17.982;2022-07-17T15:45:02;101363.06;;;27.08;36.41
50364;BME280;36272;59.400;17.982;2022-07-17T15:50:04;101354.97;;;26.62;37.07
50364;BME280;36272;59.400;17.982;2022-07-17T15:55:07;101351.41;;;26.62;37.12
50364;BME280;36272;59.400;17.982;2022-07-17T16:00:09;101343.94;;;26.85;37.20
50364;BME280;36272;59.400;17.982;2022-07-17T16:05:12;101356.75;;;26.67;37.41
50364;BME280;36272;59.400;17.982;2022-07-17T16:10:13;101352.50;;;26.52;38.03
50364;BME280;36272;59.400;17.982;2022-07-17T16:15:15;101344.28;;;26.52;38.12
50364;BME280;36272;59.400;17.982;2022-07-17T16:20:17;101352.50;;;26.52;38.03
50364;BME280;36272;59.400;17.982;2022-07-17T16:25:18;101356.41;;;26.28;38.54
50364;BME280;36272;59.400;17.982;2022-07-17T16:30:20;101350.59;;;26.21;38.73
50364;BME280;36272;59.400;17.982;2022-07-17T16:35:22;101349.81;;;26.06;38.66
50364;BME280;36272;59.400;17.982;2022-07-17T16:40:23;101352.44;;;25.89;38.88
50364;BME280;36272;59.400;17.982;2022-07-17T16:45:25;101350.19;;;25.68;39.16
50364;BME280;36272;59.400;17.982;2022-07-17T16:50:26;101344.69;;;25.45;39.53
50364;BME280;36272;59.400;17.982;2022-07-17T16:55:28;101334.28;;;25.19;39.68
50364;BME280;36272;59.400;17.982;2022-07-17T17:00:30;101331.34;;;25.02;40.56
50364;BME280;36272;59.400;17.982;2022-07-17T17:05:32;101330.78;;;24.77;40.51
50364;BME280;36272;59.400;17.982;2022-07-17T17:10:34;101333.38;;;24.68;40.93
50364;BME280;36272;59.400;17.982;2022-07-17T17:15:36;101334.06;;;24.60;41.29
50364;BME280;36272;59.400;17.982;2022-07-17T17:20:38;101340.84;;;24.62;41.62
50364;BME280;36272;59.400;17.982;2022-07-17T17:25:40;101342.88;;;24.57;41.92
50364;BME280;36272;59.400;17.982;2022-07-17T17:30:41;101344.16;;;24.31;41.98
50364;BME280;36272;59.400;17.982;2022-07-17T17:35:43;101345.84;;;24.13;42.47
50364;BME280;36272;59.400;17.982;2022-07-17T17:40:45;101337.00;;;24.02;43.01
50364;BME280;36272;59.400;17.982;2022-07-17T17:45:46;101346.66;;;23.95;43.33
50364;BME280;36272;59.400;17.982;2022-07-17T17:50:48;101358.75;;;23.88;43.43
50364;BME280;36272;59.400;17.982;2022-07-17T17:55:51;101333.25;;;23.79;43.72
50364;BME280;36272;59.400;17.982;2022-07-17T18:00:53;101367.66;;;23.61;43.67
50364;BME280;36272;59.400;17.982;2022-07-17T18:05:54;101363.72;;;23.48;44.13
50364;BME280;36272;59.400;17.982;2022-07-17T18:10:57;101359.06;;;23.29;44.14
50364;BME280;36272;59.400;17.982;2022-07-17T18:15:59;101379.06;;;23.20;44.21
50364;BME280;36272;59.400;17.982;2022-07-17T18:21:01;101378.84;;;23.16;44.16
50364;BME280;36272;59.400;17.982;2022-07-17T18:26:03;101375.44;;;23.05;44.63
50364;BME280;36272;59.400;17.982;2022-07-17T18:31:05;101381.47;;;23.02;44.54
50364;BME280;36272;59.400;17.982;2022-07-17T18:36:06;101380.13;;;22.99;44.22
50364;BME280;36272;59.400;17.982;2022-07-17T18:41:08;101385.66;;;22.94;44.22
50364;BME280;36272;59.400;17.982;2022-07-17T18:46:09;101381.31;;;22.93;44.22
50364;BME280;36272;59.400;17.982;2022-07-17T18:51:11;101384.31;;;22.92;44.07
50364;BME280;36272;59.400;17.982;2022-07-17T18:56:13;101398.50;;;22.88;44.21
50364;BME280;36272;59.400;17.982;2022-07-17T19:01:15;101402.97;;;22.79;44.30
50364;BME280;36272;59.400;17.982;2022-07-17T19:06:16;101403.84;;;22.75;44.47
50364;BME280;36272;59.400;17.982;2022-07-17T19:11:18;101400.91;;;22.71;44.63
50364;BME280;36272;59.400;17.982;2022-07-17T19:16:20;101411.59;;;22.62;44.89
50364;BME280;36272;59.400;17.982;2022-07-17T19:21:21;101412.47;;;22.57;44.75
50364;BME280;36272;59.400;17.982;2022-07-17T19:26:26;101410.56;;;22.53;44.94
50364;BME280;36272;59.400;17.982;2022-07-17T19:31:28;101424.28;;;22.48;45.29
50364;BME280;36272;59.400;17.982;2022-07-17T19:36:29;101428.31;;;22.50;45.40
50364;BME280;36272;59.400;17.982;2022-07-17T19:41:31;101413.38;;;22.48;45.68
50364;BME280;36272;59.400;17.982;2022-07-17T19:46:33;101413.66;;;22.41;45.74
50364;BME280;36272;59.400;17.982;2022-07-17T19:51:35;101417.59;;;22.30;46.03
50364;BME280;36272;59.400;17.982;2022-07-17T19:56:36;101415.47;;;22.21;46.38
50364;BME280;36272;59.400;17.982;2022-07-17T20:01:38;101419.28;;;22.20;46.63
50364;BME280;36272;59.400;17.982;2022-07-17T20:06:40;101422.59;;;22.12;46.99
50364;BME280;36272;59.400;17.982;2022-07-17T20:11:52;101410.94;;;22.06;47.25
50364;BME280;36272;59.400;17.982;2022-07-17T20:17:08;101407.47;;;21.95;47.68
50364;BME280;36272;59.400;17.982;2022-07-17T20:22:09;101420.34;;;21.79;47.81
50364;BME280;36272;59.400;17.982;2022-07-17T20:27:11;101423.41;;;21.73;47.99
50364;BME280;36272;59.400;17.982;2022-07-17T20:32:13;101421.78;;;21.61;48.41
50364;BME280;36272;59.400;17.982;2022-07-17T20:37:16;101415.88;;;21.44;48.86
50364;BME280;36272;59.400;17.982;2022-07-17T20:42:17;101418.66;;;21.33;49.12
50364;BME280;36272;59.400;17.982;2022-07-17T20:47:19;101416.22;;;21.21;49.41
50364;BME280;36272;59.400;17.982;2022-07-17T20:52:21;101413.28;;;21.07;49.63
50364;BME280;36272;59.400;17.982;2022-07-17T20:57:24;101397.03;;;20.87;50.11
50364;BME280;36272;59.400;17.982;2022-07-17T21:02:26;101406.56;;;20.74;50.31
50364;BME280;36272;59.400;17.982;2022-07-17T21:07:28;101415.53;;;20.48;50.99
50364;BME280;36272;59.400;17.982;2022-07-17T21:12:30;101422.06;;;20.32;51.47
50364;BME280;36272;59.400;17.982;2022-07-17T21:17:31;101425.84;;;20.31;51.63
50364;BME280;36272;59.400;17.982;2022-07-17T21:22:33;101420.69;;;20.24;51.75
50364;BME280;36272;59.400;17.982;2022-07-17T21:27:40;101413.09;;;20.16;51.88
50364;BME280;36272;59.400;17.982;2022-07-17T21:32:44;101424.97;;;19.94;52.18
50364;BME280;36272;59.400;17.982;2022-07-17T21:37:46;101430.91;;;19.81;52.70
50364;BME280;36272;59.400;17.982;2022-07-17T21:42:48;101424.06;;;19.68;53.32
50364;BME280;36272;59.400;17.982;2022-07-17T21:47:51;101428.41;;;19.69;53.25
50364;BME280;36272;59.400;17.982;2022-07-17T21:52:52;101443.56;;;19.54;53.63
50364;BME280;36272;59.400;17.982;2022-07-17T21:57:59;101420.72;;;19.40;54.24
50364;BME280;36272;59.400;17.982;2022-07-17T22:03:01;101429.66;;;19.35;54.25
50364;BME280;36272;59.400;17.982;2022-07-17T22:08:03;101426.09;;;19.29;54.79
50364;BME280;36272;59.400;17.982;2022-07-17T22:13:05;101428.78;;;19.29;54.70
50364;BME280;36272;59.400;17.982;2022-07-17T22:18:07;101422.28;;;19.30;54.84
50364;BME280;36272;59.400;17.982;2022-07-17T22:23:09;101423.38;;;19.29;54.87
50364;BME280;36272;59.400;17.982;2022-07-17T22:28:13;101416.56;;;19.22;55.47
50364;BME280;36272;59.400;17.982;2022-07-17T22:33:15;101424.38;;;19.08;55.98
50364;BME280;36272;59.400;17.982;2022-07-17T22:38:17;101420.78;;;18.97;56.25
50364;BME280;36272;59.400;17.982;2022-07-17T22:43:18;101418.00;;;18.92;56.45
50364;BME280;36272;59.400;17.982;2022-07-17T22:48:20;101424.22;;;18.92;56.81
50364;BME280;36272;59.400;17.982;2022-07-17T22:53:22;101418.28;;;18.95;56.92
50364;BME280;36272;59.400;17.982;2022-07-17T22:58:25;101403.63;;;18.91;57.32
50364;BME280;36272;59.400;17.982;2022-07-17T23:03:27;101416.03;;;18.82;57.39
50364;BME280;36272;59.400;17.982;2022-07-17T23:08:29;101427.94;;;18.81;57.61
50364;BME280;36272;59.400;17.982;2022-07-17T23:13:31;101417.41;;;18.84;57.72
50364;BME280;36272;59.400;17.982;2022-07-17T23:18:33;101409.00;;;18.86;57.97
50364;BME280;36272;59.400;17.982;2022-07-17T23:23:37;101412.78;;;18.85;58.09
50364;BME280;36272;59.400;17.982;2022-07-17T23:28:38;101414.44;;;18.86;58.26
50364;BME280;36272;59.400;17.982;2022-07-17T23:33:40;101420.41;;;18.88;58.29
50364;BME280;36272;59.400;17.982;2022-07-17T23:38:42;101423.63;;;18.85;58.62
50364;BME280;36272;59.400;17.982;2022-07-17T23:43:43;101423.63;;;18.85;58.60
50364;BME280;36272;59.400;17.982;2022-07-17T23:48:45;101419.56;;;18.82;58.79
50364;BME280;36272;59.400;17.982;2022-07-17T23:53:46;101413.63;;;18.85;59.07
50364;BME280;36272;59.400;17.982;2022-07-17T23:58:48;101419.28;;;18.84;59.29
